sensor_id;sensor_type;location;lat;lon;timestamp;temperature;humidity
68658;DHT22;55639;53.480;-2.228;2022-09-09T00:00:25;25.80;45.10
68658;DHT22;55639;53.480;-2.228;2022-09-09T00:05:28;25.80;45.20
68658;DHT22;55639;53.480;-2.228;2022-09-09T00:07:55;25.80;45.20
68658;DHT22;55639;53.480;-2.228;2022-09-09T00:10:28;25.80;45.10
68658;DHT22;55639;53.480;-2.228;2022-09-09T00:13:00;25.80;45.20
68658;DHT22;55639;53.480;-2.228;2022-09-09T00:15:33;25.80;45.10
68658;DHT22;55639;53.480;-2.228;2022-09-09T00:23:00;25.80;45.20
68658;DHT22;55639;53.480;-2.228;2022-09-09T00:25:30;25.80;45.20
68658;DHT22;55639;53.480;-2.228;2022-09-09T00:27:59;25.80;45.20
68658;DHT22;55639;53.480;-2.228;2022-09-09T00:30:26;25.80;45.20
68658;DHT22;55639;53.480;-2.228;2022-09-09T00:32:59;25.80;45.20
68658;DHT22;55639;53.480;-2.228;2022-09-09T00:35:27;25.80;45.20
68658;DHT22;55639;53.480;-2.228;2022-09-09T00:37:55;25.70;45.10
68658;DHT22;55639;53.480;-2.228;2022-09-09T00:40:35;25.80;45.20
68658;DHT22;55639;53.480;-2.228;2022-09-09T00:48:15;25.70;45.10
68658;DHT22;55639;53.480;-2.228;2022-09-09T00:50:46;25.70;45.10
68658;DHT22;55639;53.480;-2.228;2022-09-09T00:53:19;25.70;45.20
68658;DHT22;55639;53.480;-2.228;2022-09-09T00:55:49;25.70;45.20
68658;DHT22;55639;53.480;-2.228;2022-09-09T00:58:19;25.70;45.20
68658;DHT22;55639;53.480;-2.228;2022-09-09T01:00:46;25.70;45.20
68658;DHT22;55639;53.480;-2.228;2022-09-09T01:03:22;25.70;45.20
68658;DHT22;55639;53.480;-2.228;2022-09-09T01:10:53;25.70;45.20
68658;DHT22;55639;53.480;-2.228;2022-09-09T01:13:23;25.70;45.10
68658;DHT22;55639;53.480;-2.228;2022-09-09T01:15:49;25.70;45.20
68658;DHT22;55639;53.480;-2.228;2022-09-09T01:18:17;25.70;45.20
68658;DHT22;55639;53.480;-2.228;2022-09-09T01:20:45;25.70;45.20
68658;DHT22;55639;53.480;-2.228;2022-09-09T01:26:15;25.60;45.10
68658;DHT22;55639;53.480;-2.228;2022-09-09T01:28:44;25.70;45.20
68658;DHT22;55639;53.480;-2.228;2022-09-09T01:31:11;25.70;45.20
68658;DHT22;55639;53.480;-2.228;2022-09-09T01:33:39;25.70;45.20
68658;DHT22;55639;53.480;-2.228;2022-09-09T01:38:30;25.70;45.20
68658;DHT22;55639;53.480;-2.228;2022-09-09T01:40:56;25.70;45.20
68658;DHT22;55639;53.480;-2.228;2022-09-09T01:43:23;25.60;45.10
68658;DHT22;55639;53.480;-2.228;2022-09-09T01:45:50;25.60;45.10
68658;DHT22;55639;53.480;-2.228;2022-09-09T01:48:17;25.60;45.10
68658;DHT22;55639;53.480;-2.228;2022-09-09T01:50:44;25.60;45.10
68658;DHT22;55639;53.480;-2.228;2022-09-09T01:53:09;25.60;45.10
68658;DHT22;55639;53.480;-2.228;2022-09-09T01:55:39;25.60;45.10
68658;DHT22;55639;53.480;-2.228;2022-09-09T02:00:33;25.60;45.10
68658;DHT22;55639;53.480;-2.228;2022-09-09T02:03:05;25.60;45.20
68658;DHT22;55639;53.480;-2.228;2022-09-09T02:05:38;25.60;45.20
68658;DHT22;55639;53.480;-2.228;2022-09-09T02:08:42;25.60;45.10
68658;DHT22;55639;53.480;-2.228;2022-09-09T02:13:24;25.60;45.20
68658;DHT22;55639;53.480;-2.228;2022-09-09T02:21:18;25.60;45.20
68658;DHT22;55639;53.480;-2.228;2022-09-09T02:23:43;25.60;45.20
68658;DHT22;55639;53.480;-2.228;2022-09-09T02:26:12;25.50;45.10
68658;DHT22;55639;53.480;-2.228;2022-09-09T02:28:44;25.60;45.20
68658;DHT22;55639;53.480;-2.228;2022-09-09T02:31:10;25.50;45.10
68658;DHT22;55639;53.480;-2.228;2022-09-09T02:33:44;25.60;45.20
68658;DHT22;55639;53.480;-2.228;2022-09-09T02:36:10;25.60;45.20
68658;DHT22;55639;53.480;-2.228;2022-09-09T02:38:38;25.60;45.20
68658;DHT22;55639;53.480;-2.228;2022-09-09T02:41:06;25.60;45.20
68658;DHT22;55639;53.480;-2.228;2022-09-09T02:43:33;25.60;45.20
68658;DHT22;55639;53.480;-2.228;2022-09-09T02:49:04;25.60;45.20
68658;DHT22;55639;53.480;-2.228;2022-09-09T02:54:04;25.50;45.10
68658;DHT22;55639;53.480;-2.228;2022-09-09T02:56:36;25.60;45.20
68658;DHT22;55639;53.480;-2.228;2022-09-09T02:59:04;25.50;45.10
68658;DHT22;55639;53.480;-2.228;2022-09-09T03:01:30;25.50;45.10
68658;DHT22;55639;53.480;-2.228;2022-09-09T03:03:57;25.50;45.20
68658;DHT22;55639;53.480;-2.228;2022-09-09T03:06:22;25.50;45.10
68658;DHT22;55639;53.480;-2.228;2022-09-09T03:08:47;25.50;45.10
68658;DHT22;55639;53.480;-2.228;2022-09-09T03:11:14;25.50;45.10
68658;DHT22;55639;53.480;-2.228;2022-09-09T03:13:39;25.50;45.10
68658;DHT22;55639;53.480;-2.228;2022-09-09T03:16:05;25.50;45.10
68658;DHT22;55639;53.480;-2.228;2022-09-09T03:18:31;25.50;45.10
68658;DHT22;55639;53.480;-2.228;2022-09-09T03:20:57;25.50;45.10
68658;DHT22;55639;53.480;-2.228;2022-09-09T03:23:23;25.50;45.10
68658;DHT22;55639;53.480;-2.228;2022-09-09T03:25:49;25.50;45.20
68658;DHT22;55639;53.480;-2.228;2022-09-09T03:28:15;25.50;45.20
68658;DHT22;55639;53.480;-2.228;2022-09-09T03:30:41;25.50;45.20
68658;DHT22;55639;53.480;-2.228;2022-09-09T03:33:06;25.50;45.10
68658;DHT22;55639;53.480;-2.228;2022-09-09T03:35:32;25.50;45.10
68658;DHT22;55639;53.480;-2.228;2022-09-09T03:37:57;25.50;45.10
68658;DHT22;55639;53.480;-2.228;2022-09-09T03:40:23;25.50;45.10
68658;DHT22;55639;53.480;-2.228;2022-09-09T03:42:48;25.50;45.20
68658;DHT22;55639;53.480;-2.228;2022-09-09T03:45:14;25.50;45.20
68658;DHT22;55639;53.480;-2.228;2022-09-09T03:47:39;25.50;45.20
68658;DHT22;55639;53.480;-2.228;2022-09-09T03:50:05;25.50;45.20
68658;DHT22;55639;53.480;-2.228;2022-09-09T03:52:37;25.50;45.20
68658;DHT22;55639;53.480;-2.228;2022-09-09T03:55:03;25.50;45.20
68658;DHT22;55639;53.480;-2.228;2022-09-09T03:57:28;25.50;45.20
68658;DHT22;55639;53.480;-2.228;2022-09-09T03:59:55;25.50;45.20
68658;DHT22;55639;53.480;-2.228;2022-09-09T04:02:20;25.50;45.20
68658;DHT22;55639;53.480;-2.228;2022-09-09T04:04:46;25.50;45.20
68658;DHT22;55639;53.480;-2.228;2022-09-09T04:07:12;25.50;45.20
68658;DHT22;55639;53.480;-2.228;2022-09-09T04:09:38;25.50;45.20
68658;DHT22;55639;53.480;-2.228;2022-09-09T04:12:03;25.50;45.20
68658;DHT22;55639;53.480;-2.228;2022-09-09T04:14:29;25.50;45.20
68658;DHT22;55639;53.480;-2.228;2022-09-09T04:16:55;25.50;45.20
68658;DHT22;55639;53.480;-2.228;2022-09-09T04:19:21;25.50;45.20
68658;DHT22;55639;53.480;-2.228;2022-09-09T04:21:46;25.50;45.20
68658;DHT22;55639;53.480;-2.228;2022-09-09T04:24:15;25.50;45.20
68658;DHT22;55639;53.480;-2.228;2022-09-09T04:26:41;25.50;45.20
68658;DHT22;55639;53.480;-2.228;2022-09-09T04:29:06;25.50;45.20
68658;DHT22;55639;53.480;-2.228;2022-09-09T04:31:33;25.50;45.20
68658;DHT22;55639;53.480;-2.228;2022-09-09T04:33:58;25.50;45.20
68658;DHT22;55639;53.480;-2.228;2022-09-09T04:36:27;25.50;45.30
68658;DHT22;55639;53.480;-2.228;2022-09-09T04:38:53;25.50;45.20
68658;DHT22;55639;53.480;-2.228;2022-09-09T04:41:18;25.50;45.20
68658;DHT22;55639;53.480;-2.228;2022-09-09T04:43:44;25.40;45.20
68658;DHT22;55639;53.480;-2.228;2022-09-09T04:46:09;25.40;45.20
68658;DHT22;55639;53.480;-2.228;2022-09-09T04:48:35;25.40;45.20
68658;DHT22;55639;53.480;-2.228;2022-09-09T04:51:01;25.40;45.20
68658;DHT22;55639;53.480;-2.228;2022-09-09T04:53:27;25.40;45.20
68658;DHT22;55639;53.480;-2.228;2022-09-09T04:56:00;25.40;45.20
68658;DHT22;55639;53.480;-2.228;2022-09-09T04:58:26;25.40;45.20
68658;DHT22;55639;53.480;-2.228;2022-09-09T05:00:52;25.40;45.20
68658;DHT22;55639;53.480;-2.228;2022-09-09T05:03:17;25.40;45.20
68658;DHT22;55639;53.480;-2.228;2022-09-09T05:05:43;25.40;45.20
68658;DHT22;55639;53.480;-2.228;2022-09-09T05:08:09;25.40;45.20
68658;DHT22;55639;53.480;-2.228;2022-09-09T05:10:36;25.40;45.20
68658;DHT22;55639;53.480;-2.228;2022-09-09T05:13:02;25.40;45.20
68658;DHT22;55639;53.480;-2.228;2022-09-09T05:15:28;25.40;45.30
68658;DHT22;55639;53.480;-2.228;2022-09-09T05:17:57;25.40;45.30
68658;DHT22;55639;53.480;-2.228;2022-09-09T05:20:23;25.40;45.30
68658;DHT22;55639;53.480;-2.228;2022-09-09T05:22:52;25.40;45.30
68658;DHT22;55639;53.480;-2.228;2022-09-09T05:25:17;25.40;45.30
68658;DHT22;55639;53.480;-2.228;2022-09-09T05:27:43;25.40;45.30
68658;DHT22;55639;53.480;-2.228;2022-09-09T05:30:08;25.40;45.30
68658;DHT22;55639;53.480;-2.228;2022-09-09T05:32:34;25.40;45.30
68658;DHT22;55639;53.480;-2.228;2022-09-09T05:35:00;25.40;45.30
68658;DHT22;55639;53.480;-2.228;2022-09-09T05:37:26;25.40;45.30
68658;DHT22;55639;53.480;-2.228;2022-09-09T05:39:52;25.40;45.30
68658;DHT22;55639;53.480;-2.228;2022-09-09T05:42:18;25.40;45.30
68658;DHT22;55639;53.480;-2.228;2022-09-09T05:44:44;25.30;45.20
68658;DHT22;55639;53.480;-2.228;2022-09-09T05:47:10;25.40;45.30
68658;DHT22;55639;53.480;-2.228;2022-09-09T05:49:35;25.30;45.20
68658;DHT22;55639;53.480;-2.228;2022-09-09T05:52:01;25.40;45.30
68658;DHT22;55639;53.480;-2.228;2022-09-09T05:54:29;25.30;45.20
68658;DHT22;55639;53.480;-2.228;2022-09-09T05:56:55;25.30;45.30
68658;DHT22;55639;53.480;-2.228;2022-09-09T05:59:20;25.30;45.20
68658;DHT22;55639;53.480;-2.228;2022-09-09T06:01:48;25.30;45.20
68658;DHT22;55639;53.480;-2.228;2022-09-09T06:04:14;25.30;45.20
68658;DHT22;55639;53.480;-2.228;2022-09-09T06:06:39;25.30;45.20
68658;DHT22;55639;53.480;-2.228;2022-09-09T06:09:06;25.30;45.20
68658;DHT22;55639;53.480;-2.228;2022-09-09T06:11:35;25.30;45.30
68658;DHT22;55639;53.480;-2.228;2022-09-09T06:14:01;25.30;45.20
68658;DHT22;55639;53.480;-2.228;2022-09-09T06:16:27;25.30;45.30
68658;DHT22;55639;53.480;-2.228;2022-09-09T06:18:53;25.30;45.30
68658;DHT22;55639;53.480;-2.228;2022-09-09T06:21:29;25.30;45.30
68658;DHT22;55639;53.480;-2.228;2022-09-09T06:23:55;25.30;45.90
68658;DHT22;55639;53.480;-2.228;2022-09-09T06:26:22;25.30;45.30
68658;DHT22;55639;53.480;-2.228;2022-09-09T06:28:48;25.30;45.30
68658;DHT22;55639;53.480;-2.228;2022-09-09T06:31:15;25.30;45.30
68658;DHT22;55639;53.480;-2.228;2022-09-09T06:33:47;25.30;45.30
68658;DHT22;55639;53.480;-2.228;2022-09-09T06:36:15;25.30;45.30
68658;DHT22;55639;53.480;-2.228;2022-09-09T06:38:41;25.30;45.30
68658;DHT22;55639;53.480;-2.228;2022-09-09T06:41:08;25.30;45.30
68658;DHT22;55639;53.480;-2.228;2022-09-09T06:43:34;25.30;45.30
68658;DHT22;55639;53.480;-2.228;2022-09-09T06:46:04;25.30;45.30
68658;DHT22;55639;53.480;-2.228;2022-09-09T06:48:30;25.30;45.30
68658;DHT22;55639;53.480;-2.228;2022-09-09T06:53:30;25.30;45.30
68658;DHT22;55639;53.480;-2.228;2022-09-09T06:56:02;25.30;45.30
68658;DHT22;55639;53.480;-2.228;2022-09-09T06:58:28;25.30;45.40
68658;DHT22;55639;53.480;-2.228;2022-09-09T07:01:06;25.30;45.40
68658;DHT22;55639;53.480;-2.228;2022-09-09T07:03:32;25.30;45.40
68658;DHT22;55639;53.480;-2.228;2022-09-09T07:05:58;25.30;45.40
68658;DHT22;55639;53.480;-2.228;2022-09-09T07:08:24;25.30;45.40
68658;DHT22;55639;53.480;-2.228;2022-09-09T07:10:50;25.30;45.40
68658;DHT22;55639;53.480;-2.228;2022-09-09T07:13:26;25.30;45.40
68658;DHT22;55639;53.480;-2.228;2022-09-09T07:15:52;25.30;45.40
68658;DHT22;55639;53.480;-2.228;2022-09-09T07:18:18;25.30;45.50
68658;DHT22;55639;53.480;-2.228;2022-09-09T07:20:52;25.30;45.50
68658;DHT22;55639;53.480;-2.228;2022-09-09T07:23:18;25.30;45.50
68658;DHT22;55639;53.480;-2.228;2022-09-09T07:25:46;25.30;45.50
68658;DHT22;55639;53.480;-2.228;2022-09-09T07:28:13;25.30;45.60
68658;DHT22;55639;53.480;-2.228;2022-09-09T07:30:38;25.30;45.50
68658;DHT22;55639;53.480;-2.228;2022-09-09T07:33:04;25.30;45.60
68658;DHT22;55639;53.480;-2.228;2022-09-09T07:35:30;25.30;45.60
68658;DHT22;55639;53.480;-2.228;2022-09-09T07:37:55;25.30;45.60
68658;DHT22;55639;53.480;-2.228;2022-09-09T07:40:21;25.30;45.60
68658;DHT22;55639;53.480;-2.228;2022-09-09T07:42:47;25.30;45.70
68658;DHT22;55639;53.480;-2.228;2022-09-09T07:45:13;25.30;45.70
68658;DHT22;55639;53.480;-2.228;2022-09-09T07:47:39;25.30;45.70
68658;DHT22;55639;53.480;-2.228;2022-09-09T07:50:06;25.20;45.60
68658;DHT22;55639;53.480;-2.228;2022-09-09T07:52:33;25.20;45.60
68658;DHT22;55639;53.480;-2.228;2022-09-09T07:54:59;25.20;45.60
68658;DHT22;55639;53.480;-2.228;2022-09-09T07:57:25;25.30;45.60
68658;DHT22;55639;53.480;-2.228;2022-09-09T07:59:51;25.20;45.50
68658;DHT22;55639;53.480;-2.228;2022-09-09T08:02:17;25.20;45.50
68658;DHT22;55639;53.480;-2.228;2022-09-09T08:04:43;25.20;45.50
68658;DHT22;55639;53.480;-2.228;2022-09-09T08:07:08;25.20;45.50
68658;DHT22;55639;53.480;-2.228;2022-09-09T08:09:34;25.20;45.50
68658;DHT22;55639;53.480;-2.228;2022-09-09T08:11:59;25.20;45.60
68658;DHT22;55639;53.480;-2.228;2022-09-09T08:14:26;25.30;45.60
68658;DHT22;55639;53.480;-2.228;2022-09-09T08:16:52;25.20;46.10
68658;DHT22;55639;53.480;-2.228;2022-09-09T08:19:21;25.20;45.60
68658;DHT22;55639;53.480;-2.228;2022-09-09T08:21:46;25.30;45.60
68658;DHT22;55639;53.480;-2.228;2022-09-09T08:24:14;25.30;45.60
68658;DHT22;55639;53.480;-2.228;2022-09-09T08:26:41;25.20;45.50
68658;DHT22;55639;53.480;-2.228;2022-09-09T08:29:07;25.20;45.60
68658;DHT22;55639;53.480;-2.228;2022-09-09T08:31:37;25.20;45.60
68658;DHT22;55639;53.480;-2.228;2022-09-09T08:34:03;25.20;45.60
68658;DHT22;55639;53.480;-2.228;2022-09-09T08:36:29;25.20;45.60
68658;DHT22;55639;53.480;-2.228;2022-09-09T08:38:55;25.20;45.60
68658;DHT22;55639;53.480;-2.228;2022-09-09T08:44:01;25.20;45.60
68658;DHT22;55639;53.480;-2.228;2022-09-09T08:46:42;25.30;45.80
68658;DHT22;55639;53.480;-2.228;2022-09-09T08:51:37;25.20;45.60
68658;DHT22;55639;53.480;-2.228;2022-09-09T08:54:03;25.20;45.60
68658;DHT22;55639;53.480;-2.228;2022-09-09T08:56:30;25.20;46.30
68658;DHT22;55639;53.480;-2.228;2022-09-09T08:58:56;25.20;45.60
68658;DHT22;55639;53.480;-2.228;2022-09-09T09:04:05;25.20;45.60
68658;DHT22;55639;53.480;-2.228;2022-09-09T09:11:44;25.20;45.70
68658;DHT22;55639;53.480;-2.228;2022-09-09T09:14:23;25.30;45.70
68658;DHT22;55639;53.480;-2.228;2022-09-09T09:19:29;25.30;45.70
68658;DHT22;55639;53.480;-2.228;2022-09-09T09:22:06;25.30;45.80
68658;DHT22;55639;53.480;-2.228;2022-09-09T09:24:41;25.20;45.70
68658;DHT22;55639;53.480;-2.228;2022-09-09T09:27:12;25.30;45.80
68658;DHT22;55639;53.480;-2.228;2022-09-09T09:29:37;25.30;45.70
68658;DHT22;55639;53.480;-2.228;2022-09-09T09:32:04;25.30;45.70
68658;DHT22;55639;53.480;-2.228;2022-09-09T09:34:30;25.30;45.70
68658;DHT22;55639;53.480;-2.228;2022-09-09T09:36:56;25.30;45.70
68658;DHT22;55639;53.480;-2.228;2022-09-09T09:39:31;25.30;45.70
68658;DHT22;55639;53.480;-2.228;2022-09-09T09:42:11;25.30;45.70
68658;DHT22;55639;53.480;-2.228;2022-09-09T09:44:40;25.30;45.70
68658;DHT22;55639;53.480;-2.228;2022-09-09T09:47:08;25.30;45.80
68658;DHT22;55639;53.480;-2.228;2022-09-09T09:49:33;25.30;45.80
68658;DHT22;55639;53.480;-2.228;2022-09-09T09:52:02;25.30;45.80
68658;DHT22;55639;53.480;-2.228;2022-09-09T09:54:29;25.30;45.70
68658;DHT22;55639;53.480;-2.228;2022-09-09T09:56:55;25.30;45.80
68658;DHT22;55639;53.480;-2.228;2022-09-09T09:59:22;25.30;45.70
68658;DHT22;55639;53.480;-2.228;2022-09-09T10:01:48;25.30;45.80
68658;DHT22;55639;53.480;-2.228;2022-09-09T10:04:15;25.30;45.70
68658;DHT22;55639;53.480;-2.228;2022-09-09T10:06:42;25.30;45.70
68658;DHT22;55639;53.480;-2.228;2022-09-09T10:14:20;25.30;45.80
68658;DHT22;55639;53.480;-2.228;2022-09-09T10:19:34;25.30;45.80
68658;DHT22;55639;53.480;-2.228;2022-09-09T10:22:19;25.30;45.80
68658;DHT22;55639;53.480;-2.228;2022-09-09T10:30:12;25.30;45.80
68658;DHT22;55639;53.480;-2.228;2022-09-09T10:32:40;25.40;45.80
68658;DHT22;55639;53.480;-2.228;2022-09-09T10:42:53;25.40;45.70
68658;DHT22;55639;53.480;-2.228;2022-09-09T10:45:27;25.40;45.70
68658;DHT22;55639;53.480;-2.228;2022-09-09T10:52:58;25.40;45.80
68658;DHT22;55639;53.480;-2.228;2022-09-09T10:55:29;25.40;45.70
68658;DHT22;55639;53.480;-2.228;2022-09-09T10:57:58;25.40;45.60
68658;DHT22;55639;53.480;-2.228;2022-09-09T11:03:02;25.40;45.50
68658;DHT22;55639;53.480;-2.228;2022-09-09T11:05:35;25.40;45.60
68658;DHT22;55639;53.480;-2.228;2022-09-09T11:08:09;25.40;45.60
68658;DHT22;55639;53.480;-2.228;2022-09-09T11:16:15;25.40;45.80
68658;DHT22;55639;53.480;-2.228;2022-09-09T11:18:42;25.40;45.60
68658;DHT22;55639;53.480;-2.228;2022-09-09T11:21:44;25.40;45.70
68658;DHT22;55639;53.480;-2.228;2022-09-09T11:24:04;25.40;45.90
68658;DHT22;55639;53.480;-2.228;2022-09-09T11:26:41;25.40;45.90
68658;DHT22;55639;53.480;-2.228;2022-09-09T11:29:33;25.40;45.70
68658;DHT22;55639;53.480;-2.228;2022-09-09T11:34:51;25.40;45.90
68658;DHT22;55639;53.480;-2.228;2022-09-09T11:40:08;25.50;46.00
68658;DHT22;55639;53.480;-2.228;2022-09-09T11:42:35;25.40;45.90
68658;DHT22;55639;53.480;-2.228;2022-09-09T11:45:11;25.50;46.00
68658;DHT22;55639;53.480;-2.228;2022-09-09T11:47:36;25.40;45.90
68658;DHT22;55639;53.480;-2.228;2022-09-09T11:55:08;25.40;46.00
68658;DHT22;55639;53.480;-2.228;2022-09-09T11:57:35;25.40;45.80
68658;DHT22;55639;53.480;-2.228;2022-09-09T12:00:01;25.50;46.00
68658;DHT22;55639;53.480;-2.228;2022-09-09T12:02:28;25.40;46.00
68658;DHT22;55639;53.480;-2.228;2022-09-09T12:07:26;25.40;46.10
68658;DHT22;55639;53.480;-2.228;2022-09-09T12:09:56;25.40;46.10
68658;DHT22;55639;53.480;-2.228;2022-09-09T12:12:25;25.50;46.20
68658;DHT22;55639;53.480;-2.228;2022-09-09T12:17:19;25.40;46.20
68658;DHT22;55639;53.480;-2.228;2022-09-09T12:19:46;25.40;46.20
68658;DHT22;55639;53.480;-2.228;2022-09-09T12:22:31;25.40;46.30
68658;DHT22;55639;53.480;-2.228;2022-09-09T12:25:44;25.40;46.30
68658;DHT22;55639;53.480;-2.228;2022-09-09T12:30:17;25.40;46.30
68658;DHT22;55639;53.480;-2.228;2022-09-09T12:32:42;25.40;46.30
68658;DHT22;55639;53.480;-2.228;2022-09-09T12:37:40;25.40;46.30
68658;DHT22;55639;53.480;-2.228;2022-09-09T12:40:18;25.40;46.20
68658;DHT22;55639;53.480;-2.228;2022-09-09T12:42:44;25.40;46.30
68658;DHT22;55639;53.480;-2.228;2022-09-09T12:47:44;25.50;46.30
68658;DHT22;55639;53.480;-2.228;2022-09-09T12:50:15;25.40;46.30
68658;DHT22;55639;53.480;-2.228;2022-09-09T12:52:42;25.50;46.30
68658;DHT22;55639;53.480;-2.228;2022-09-09T12:55:14;25.40;46.30
68658;DHT22;55639;53.480;-2.228;2022-09-09T12:57:41;25.40;46.30
68658;DHT22;55639;53.480;-2.228;2022-09-09T13:00:15;25.50;46.30
68658;DHT22;55639;53.480;-2.228;2022-09-09T13:02:54;25.50;46.30
68658;DHT22;55639;53.480;-2.228;2022-09-09T13:05:27;25.50;46.30
68658;DHT22;55639;53.480;-2.228;2022-09-09T13:10:28;25.50;46.30
68658;DHT22;55639;53.480;-2.228;2022-09-09T13:12:54;25.50;46.30
68658;DHT22;55639;53.480;-2.228;2022-09-09T13:15:21;25.50;46.30
68658;DHT22;55639;53.480;-2.228;2022-09-09T13:17:51;25.50;46.30
68658;DHT22;55639;53.480;-2.228;2022-09-09T13:20:18;25.50;46.30
68658;DHT22;55639;53.480;-2.228;2022-09-09T13:22:44;25.50;46.30
68658;DHT22;55639;53.480;-2.228;2022-09-09T13:27:36;25.50;46.30
68658;DHT22;55639;53.480;-2.228;2022-09-09T13:33:06;25.60;46.50
68658;DHT22;55639;53.480;-2.228;2022-09-09T13:35:47;25.60;46.40
68658;DHT22;55639;53.480;-2.228;2022-09-09T13:38:15;25.60;46.50
68658;DHT22;55639;53.480;-2.228;2022-09-09T13:40:51;25.70;46.50
68658;DHT22;55639;53.480;-2.228;2022-09-09T13:43:18;25.70;46.50
68658;DHT22;55639;53.480;-2.228;2022-09-09T13:45:52;25.80;46.50
68658;DHT22;55639;53.480;-2.228;2022-09-09T13:48:19;25.80;46.50
68658;DHT22;55639;53.480;-2.228;2022-09-09T13:50:53;25.80;46.50
68658;DHT22;55639;53.480;-2.228;2022-09-09T13:53:19;25.90;46.60
68658;DHT22;55639;53.480;-2.228;2022-09-09T13:55:44;25.90;46.60
68658;DHT22;55639;53.480;-2.228;2022-09-09T13:58:16;26.00;46.60
68658;DHT22;55639;53.480;-2.228;2022-09-09T14:00:45;26.00;46.60
68658;DHT22;55639;53.480;-2.228;2022-09-09T14:03:11;26.00;46.60
68658;DHT22;55639;53.480;-2.228;2022-09-09T14:05:37;26.00;46.60
68658;DHT22;55639;53.480;-2.228;2022-09-09T14:08:06;26.00;46.50
68658;DHT22;55639;53.480;-2.228;2022-09-09T14:10:32;26.00;46.40
68658;DHT22;55639;53.480;-2.228;2022-09-09T14:13:01;26.00;46.40
68658;DHT22;55639;53.480;-2.228;2022-09-09T14:15:26;26.00;46.40
68658;DHT22;55639;53.480;-2.228;2022-09-09T14:17:52;26.00;46.40
68658;DHT22;55639;53.480;-2.228;2022-09-09T14:20:17;26.00;46.40
68658;DHT22;55639;53.480;-2.228;2022-09-09T14:22:44;26.00;46.50
68658;DHT22;55639;53.480;-2.228;2022-09-09T14:25:10;26.00;46.50
68658;DHT22;55639;53.480;-2.228;2022-09-09T14:27:36;26.00;46.50
68658;DHT22;55639;53.480;-2.228;2022-09-09T14:30:04;26.00;46.50
68658;DHT22;55639;53.480;-2.228;2022-09-09T14:32:30;26.00;46.50
68658;DHT22;55639;53.480;-2.228;2022-09-09T14:34:56;26.00;46.50
68658;DHT22;55639;53.480;-2.228;2022-09-09T14:37:21;26.00;46.50
68658;DHT22;55639;53.480;-2.228;2022-09-09T14:39:47;25.90;46.40
68658;DHT22;55639;53.480;-2.228;2022-09-09T14:42:13;25.90;46.40
68658;DHT22;55639;53.480;-2.228;2022-09-09T14:44:39;26.00;46.50
68658;DHT22;55639;53.480;-2.228;2022-09-09T14:47:06;26.00;46.50
68658;DHT22;55639;53.480;-2.228;2022-09-09T14:49:33;26.00;46.50
68658;DHT22;55639;53.480;-2.228;2022-09-09T14:51:59;26.00;46.50
68658;DHT22;55639;53.480;-2.228;2022-09-09T14:54:24;26.00;46.40
68658;DHT22;55639;53.480;-2.228;2022-09-09T14:56:50;25.90;46.40
68658;DHT22;55639;53.480;-2.228;2022-09-09T14:59:17;26.00;46.40
68658;DHT22;55639;53.480;-2.228;2022-09-09T15:01:43;26.00;46.40
68658;DHT22;55639;53.480;-2.228;2022-09-09T15:04:10;26.00;47.10
68658;DHT22;55639;53.480;-2.228;2022-09-09T15:06:36;26.00;46.50
68658;DHT22;55639;53.480;-2.228;2022-09-09T15:09:03;26.00;46.50
68658;DHT22;55639;53.480;-2.228;2022-09-09T15:11:30;26.10;46.50
68658;DHT22;55639;53.480;-2.228;2022-09-09T15:13:57;26.10;46.40
68658;DHT22;55639;53.480;-2.228;2022-09-09T15:16:24;26.10;46.40
68658;DHT22;55639;53.480;-2.228;2022-09-09T15:18:51;26.10;46.40
68658;DHT22;55639;53.480;-2.228;2022-09-09T15:21:17;26.10;46.40
68658;DHT22;55639;53.480;-2.228;2022-09-09T15:23:46;26.10;46.30
68658;DHT22;55639;53.480;-2.228;2022-09-09T15:26:12;26.10;46.30
68658;DHT22;55639;53.480;-2.228;2022-09-09T15:28:42;26.10;46.40
68658;DHT22;55639;53.480;-2.228;2022-09-09T15:31:10;26.10;46.30
68658;DHT22;55639;53.480;-2.228;2022-09-09T15:33:36;26.10;46.30
68658;DHT22;55639;53.480;-2.228;2022-09-09T15:36:19;26.10;46.30
68658;DHT22;55639;53.480;-2.228;2022-09-09T15:38:44;26.10;46.30
68658;DHT22;55639;53.480;-2.228;2022-09-09T15:41:11;26.10;46.30
68658;DHT22;55639;53.480;-2.228;2022-09-09T15:43:37;26.10;46.30
68658;DHT22;55639;53.480;-2.228;2022-09-09T15:48:51;26.10;46.40
68658;DHT22;55639;53.480;-2.228;2022-09-09T15:51:17;26.10;46.40
68658;DHT22;55639;53.480;-2.228;2022-09-09T15:53:44;26.10;46.30
68658;DHT22;55639;53.480;-2.228;2022-09-09T15:56:10;26.10;46.30
68658;DHT22;55639;53.480;-2.228;2022-09-09T15:58:35;26.10;46.40
68658;DHT22;55639;53.480;-2.228;2022-09-09T16:01:04;26.10;46.30
68658;DHT22;55639;53.480;-2.228;2022-09-09T16:03:34;26.10;46.30
68658;DHT22;55639;53.480;-2.228;2022-09-09T16:05:59;26.10;46.30
68658;DHT22;55639;53.480;-2.228;2022-09-09T16:08:31;26.10;46.30
68658;DHT22;55639;53.480;-2.228;2022-09-09T16:10:56;26.10;46.30
68658;DHT22;55639;53.480;-2.228;2022-09-09T16:13:22;26.10;46.20
68658;DHT22;55639;53.480;-2.228;2022-09-09T16:15:53;26.10;46.20
68658;DHT22;55639;53.480;-2.228;2022-09-09T16:18:19;26.10;46.30
68658;DHT22;55639;53.480;-2.228;2022-09-09T16:20:53;26.10;46.30
68658;DHT22;55639;53.480;-2.228;2022-09-09T16:23:18;26.10;46.30
68658;DHT22;55639;53.480;-2.228;2022-09-09T16:25:52;26.10;46.20
68658;DHT22;55639;53.480;-2.228;2022-09-09T16:28:18;26.10;46.20
68658;DHT22;55639;53.480;-2.228;2022-09-09T16:30:43;26.10;46.20
68658;DHT22;55639;53.480;-2.228;2022-09-09T16:33:09;26.10;46.20
68658;DHT22;55639;53.480;-2.228;2022-09-09T16:35:36;26.10;46.10
68658;DHT22;55639;53.480;-2.228;2022-09-09T16:38:02;26.10;46.20
68658;DHT22;55639;53.480;-2.228;2022-09-09T16:40:28;26.10;46.20
68658;DHT22;55639;53.480;-2.228;2022-09-09T16:42:53;26.10;46.10
68658;DHT22;55639;53.480;-2.228;2022-09-09T16:45:20;26.10;46.20
68658;DHT22;55639;53.480;-2.228;2022-09-09T16:47:45;26.10;46.30
68658;DHT22;55639;53.480;-2.228;2022-09-09T16:50:11;26.10;46.30
68658;DHT22;55639;53.480;-2.228;2022-09-09T16:52:37;26.10;46.40
68658;DHT22;55639;53.480;-2.228;2022-09-09T16:55:02;26.10;46.40
68658;DHT22;55639;53.480;-2.228;2022-09-09T16:57:28;26.10;46.50
68658;DHT22;55639;53.480;-2.228;2022-09-09T16:59:55;26.10;46.50
68658;DHT22;55639;53.480;-2.228;2022-09-09T17:02:24;26.10;46.50
68658;DHT22;55639;53.480;-2.228;2022-09-09T17:04:50;26.10;46.60
68658;DHT22;55639;53.480;-2.228;2022-09-09T17:07:16;26.10;46.60
68658;DHT22;55639;53.480;-2.228;2022-09-09T17:09:41;26.10;46.70
68658;DHT22;55639;53.480;-2.228;2022-09-09T17:12:07;26.10;46.70
68658;DHT22;55639;53.480;-2.228;2022-09-09T17:14:33;26.10;46.70
68658;DHT22;55639;53.480;-2.228;2022-09-09T17:16:59;26.10;46.60
68658;DHT22;55639;53.480;-2.228;2022-09-09T17:19:25;26.10;46.60
68658;DHT22;55639;53.480;-2.228;2022-09-09T17:21:51;26.10;46.60
68658;DHT22;55639;53.480;-2.228;2022-09-09T17:24:17;26.10;46.60